sensor_id;sensor_type;location;lat;lon;timestamp;P1;durP1;ratioP1;P2;durP2;ratioP2
29728;SDS011;20055;51.498;11.960;2023-08-17T00:00:33;12.23;;;8.80;;
29728;SDS011;20055;51.498;11.960;2023-08-17T00:02:59;13.02;;;9.00;;
29728;SDS011;20055;51.498;11.960;2023-08-17T00:05:25;16.02;;;8.82;;
29728;SDS011;20055;51.498;11.960;2023-08-17T00:07:53;13.60;;;8.32;;
29728;SDS011;20055;51.498;11.960;2023-08-17T00:10:19;11.73;;;8.20;;
29728;SDS011;20055;51.498;11.960;2023-08-17T00:12:45;16.13;;;8.05;;
29728;SDS011;20055;51.498;11.960;2023-08-17T00:15:12;12.68;;;8.93;;
29728;SDS011;20055;51.498;11.960;2023-08-17T00:17:38;12.68;;;8.90;;
29728;SDS011;20055;51.498;11.960;2023-08-17T00:20:04;14.25;;;8.65;;
29728;SDS011;20055;51.498;11.960;2023-08-17T00:22:32;12.50;;;8.88;;
29728;SDS011;20055;51.498;11.960;2023-08-17T00:24:58;15.70;;;8.25;;
29728;SDS011;20055;51.498;11.960;2023-08-17T00:27:25;15.00;;;8.50;;
29728;SDS011;20055;51.498;11.960;2023-08-17T00:29:51;15.45;;;9.23;;
29728;SDS011;20055;51.498;11.960;2023-08-17T00:32:18;13.52;;;8.32;;
29728;SDS011;20055;51.498;11.960;2023-08-17T00:34:44;17.90;;;8.20;;
29728;SDS011;20055;51.498;11.960;2023-08-17T00:37:10;13.40;;;8.43;;
29728;SDS011;20055;51.498;11.960;2023-08-17T00:39:37;12.90;;;8.40;;
29728;SDS011;20055;51.498;11.960;2023-08-17T00:42:03;15.00;;;9.13;;
29728;SDS011;20055;51.498;11.960;2023-08-17T00:44:29;11.88;;;7.95;;
29728;SDS011;20055;51.498;11.960;2023-08-17T00:46:56;17.50;;;8.85;;
29728;SDS011;20055;51.498;11.960;2023-08-17T00:49:22;16.05;;;7.95;;
29728;SDS011;20055;51.498;11.960;2023-08-17T00:51:49;16.63;;;8.50;;
29728;SDS011;20055;51.498;11.960;2023-08-17T00:54:15;16.35;;;8.10;;
29728;SDS011;20055;51.498;11.960;2023-08-17T00:56:49;15.98;;;8.35;;
29728;SDS011;20055;51.498;11.960;2023-08-17T00:59:15;15.48;;;7.78;;
29728;SDS011;20055;51.498;11.960;2023-08-17T01:01:42;12.65;;;8.60;;
29728;SDS011;20055;51.498;11.960;2023-08-17T01:04:08;9.93;;;8.30;;
29728;SDS011;20055;51.498;11.960;2023-08-17T01:06:35;20.17;;;8.73;;
29728;SDS011;20055;51.498;11.960;2023-08-17T01:11:34;14.38;;;8.07;;
29728;SDS011;20055;51.498;11.960;2023-08-17T01:14:13;13.50;;;7.40;;
29728;SDS011;20055;51.498;11.960;2023-08-17T01:17:03;12.48;;;8.07;;
29728;SDS011;20055;51.498;11.960;2023-08-17T01:20:07;13.20;;;8.45;;
29728;SDS011;20055;51.498;11.960;2023-08-17T01:22:35;8.02;;;6.72;;
29728;SDS011;20055;51.498;11.960;2023-08-17T01:25:04;12.73;;;7.90;;
29728;SDS011;20055;51.498;11.960;2023-08-17T01:27:34;11.68;;;8.30;;
29728;SDS011;20055;51.498;11.960;2023-08-17T01:30:07;15.48;;;7.15;;
29728;SDS011;20055;51.498;11.960;2023-08-17T01:32:45;11.23;;;7.00;;
29728;SDS011;20055;51.498;11.960;2023-08-17T01:37:47;10.68;;;6.78;;
29728;SDS011;20055;51.498;11.960;2023-08-17T01:40:18;7.20;;;5.75;;
29728;SDS011;20055;51.498;11.960;2023-08-17T01:42:46;8.43;;;5.35;;
29728;SDS011;20055;51.498;11.960;2023-08-17T01:45:14;12.85;;;5.45;;
29728;SDS011;20055;51.498;11.960;2023-08-17T01:47:43;7.53;;;2.47;;
29728;SDS011;20055;51.498;11.960;2023-08-17T01:50:09;4.50;;;1.65;;
29728;SDS011;20055;51.498;11.960;2023-08-17T01:52:35;3.17;;;1.50;;
29728;SDS011;20055;51.498;11.960;2023-08-17T01:55:02;1.58;;;1.00;;
29728;SDS011;20055;51.498;11.960;2023-08-17T01:57:28;4.28;;;1.10;;
29728;SDS011;20055;51.498;11.960;2023-08-17T01:59:54;7.03;;;1.50;;
29728;SDS011;20055;51.498;11.960;2023-08-17T02:02:21;6.68;;;2.03;;
29728;SDS011;20055;51.498;11.960;2023-08-17T02:04:49;15.85;;;3.00;;
29728;SDS011;20055;51.498;11.960;2023-08-17T02:07:15;36.72;;;2.90;;
29728;SDS011;20055;51.498;11.960;2023-08-17T02:09:42;17.25;;;3.60;;
29728;SDS011;20055;51.498;11.960;2023-08-17T02:12:08;12.00;;;3.42;;
29728;SDS011;20055;51.498;11.960;2023-08-17T02:14:34;4.47;;;2.65;;
29728;SDS011;20055;51.498;11.960;2023-08-17T02:17:00;11.60;;;4.00;;
29728;SDS011;20055;51.498;11.960;2023-08-17T02:19:27;6.00;;;3.42;;
29728;SDS011;20055;51.498;11.960;2023-08-17T02:21:53;10.95;;;4.22;;
29728;SDS011;20055;51.498;11.960;2023-08-17T02:24:20;12.05;;;3.95;;
29728;SDS011;20055;51.498;11.960;2023-08-17T02:26:46;10.73;;;4.25;;
29728;SDS011;20055;51.498;11.960;2023-08-17T02:29:12;7.70;;;3.72;;
29728;SDS011;20055;51.498;11.960;2023-08-17T02:31:39;8.23;;;5.07;;
29728;SDS011;20055;51.498;11.960;2023-08-17T02:34:05;9.35;;;3.80;;
29728;SDS011;20055;51.498;11.960;2023-08-17T02:36:31;14.35;;;5.07;;
29728;SDS011;20055;51.498;11.960;2023-08-17T02:38:58;10.73;;;4.82;;
29728;SDS011;20055;51.498;11.960;2023-08-17T02:41:24;10.40;;;4.90;;
29728;SDS011;20055;51.498;11.960;2023-08-17T02:43:50;11.18;;;4.85;;
29728;SDS011;20055;51.498;11.960;2023-08-17T02:46:16;16.73;;;5.03;;
29728;SDS011;20055;51.498;11.960;2023-08-17T02:48:42;11.02;;;4.47;;
29728;SDS011;20055;51.498;11.960;2023-08-17T02:51:09;16.42;;;5.05;;
29728;SDS011;20055;51.498;11.960;2023-08-17T02:53:35;12.15;;;4.38;;
29728;SDS011;20055;51.498;11.960;2023-08-17T02:56:01;14.23;;;4.53;;
29728;SDS011;20055;51.498;11.960;2023-08-17T02:58:28;10.20;;;4.78;;
29728;SDS011;20055;51.498;11.960;2023-08-17T03:00:55;14.85;;;4.60;;
29728;SDS011;20055;51.498;11.960;2023-08-17T03:03:21;11.15;;;4.35;;
29728;SDS011;20055;51.498;11.960;2023-08-17T03:05:47;12.68;;;4.20;;
29728;SDS011;20055;51.498;11.960;2023-08-17T03:08:13;15.57;;;5.57;;
29728;SDS011;20055;51.498;11.960;2023-08-17T03:10:40;9.85;;;4.80;;
29728;SDS011;20055;51.498;11.960;2023-08-17T03:13:06;11.00;;;5.15;;
29728;SDS011;20055;51.498;11.960;2023-08-17T03:15:32;12.38;;;4.72;;
29728;SDS011;20055;51.498;11.960;2023-08-17T03:17:58;13.75;;;5.05;;
29728;SDS011;20055;51.498;11.960;2023-08-17T03:20:25;15.20;;;5.38;;
29728;SDS011;20055;51.498;11.960;2023-08-17T03:22:52;7.85;;;3.97;;
29728;SDS011;20055;51.498;11.960;2023-08-17T03:25:18;8.82;;;5.18;;
29728;SDS011;20055;51.498;11.960;2023-08-17T03:27:45;13.32;;;4.78;;
29728;SDS011;20055;51.498;11.960;2023-08-17T03:30:11;9.00;;;4.22;;
29728;SDS011;20055;51.498;11.960;2023-08-17T03:32:38;6.43;;;3.58;;
29728;SDS011;20055;51.498;11.960;2023-08-17T03:35:04;10.68;;;3.55;;
29728;SDS011;20055;51.498;11.960;2023-08-17T03:37:31;12.55;;;4.00;;
29728;SDS011;20055;51.498;11.960;2023-08-17T03:39:57;10.35;;;4.35;;
29728;SDS011;20055;51.498;11.960;2023-08-17T03:42:24;14.98;;;4.45;;
29728;SDS011;20055;51.498;11.960;2023-08-17T03:44:50;7.82;;;3.65;;
29728;SDS011;20055;51.498;11.960;2023-08-17T03:47:17;11.13;;;4.43;;
29728;SDS011;20055;51.498;11.960;2023-08-17T03:49:44;8.70;;;4.40;;
29728;SDS011;20055;51.498;11.960;2023-08-17T03:52:10;6.75;;;3.97;;
29728;SDS011;20055;51.498;11.960;2023-08-17T03:54:36;4.55;;;3.30;;
29728;SDS011;20055;51.498;11.960;2023-08-17T03:57:03;8.80;;;4.60;;
29728;SDS011;20055;51.498;11.960;2023-08-17T03:59:29;6.50;;;3.95;;
29728;SDS011;20055;51.498;11.960;2023-08-17T04:01:55;9.02;;;3.55;;
29728;SDS011;20055;51.498;11.960;2023-08-17T04:04:22;8.60;;;4.32;;
29728;SDS011;20055;51.498;11.960;2023-08-17T04:06:48;7.60;;;3.47;;
29728;SDS011;20055;51.498;11.960;2023-08-17T04:09:14;6.70;;;3.85;;
29728;SDS011;20055;51.498;11.960;2023-08-17T04:11:40;7.07;;;3.85;;
29728;SDS011;20055;51.498;11.960;2023-08-17T04:14:07;7.93;;;3.45;;
29728;SDS011;20055;51.498;11.960;2023-08-17T04:16:34;6.30;;;3.67;;
29728;SDS011;20055;51.498;11.960;2023-08-17T04:19:02;6.30;;;4.00;;
29728;SDS011;20055;51.498;11.960;2023-08-17T04:21:29;6.82;;;2.95;;
29728;SDS011;20055;51.498;11.960;2023-08-17T04:23:56;6.28;;;3.03;;
29728;SDS011;20055;51.498;11.960;2023-08-17T04:26:22;5.60;;;3.13;;
29728;SDS011;20055;51.498;11.960;2023-08-17T04:28:49;9.27;;;3.63;;
29728;SDS011;20055;51.498;11.960;2023-08-17T04:31:16;3.78;;;2.40;;
29728;SDS011;20055;51.498;11.960;2023-08-17T04:33:52;5.18;;;2.60;;
29728;SDS011;20055;51.498;11.960;2023-08-17T04:36:18;6.22;;;2.85;;
29728;SDS011;20055;51.498;11.960;2023-08-17T04:38:45;5.65;;;2.47;;
29728;SDS011;20055;51.498;11.960;2023-08-17T04:41:11;6.22;;;3.05;;
29728;SDS011;20055;51.498;11.960;2023-08-17T04:43:37;6.90;;;2.17;;
29728;SDS011;20055;51.498;11.960;2023-08-17T04:46:04;4.28;;;2.38;;
29728;SDS011;20055;51.498;11.960;2023-08-17T04:48:31;7.82;;;2.80;;
29728;SDS011;20055;51.498;11.960;2023-08-17T04:50:57;5.10;;;2.70;;
29728;SDS011;20055;51.498;11.960;2023-08-17T04:53:24;5.18;;;2.50;;
29728;SDS011;20055;51.498;11.960;2023-08-17T04:55:50;8.13;;;2.88;;
29728;SDS011;20055;51.498;11.960;2023-08-17T04:58:17;4.22;;;2.65;;
29728;SDS011;20055;51.498;11.960;2023-08-17T05:00:43;6.60;;;2.80;;
29728;SDS011;20055;51.498;11.960;2023-08-17T05:03:09;6.75;;;3.00;;
29728;SDS011;20055;51.498;11.960;2023-08-17T05:05:40;9.38;;;4.18;;
29728;SDS011;20055;51.498;11.960;2023-08-17T05:08:09;10.90;;;3.20;;
29728;SDS011;20055;51.498;11.960;2023-08-17T05:10:36;7.50;;;3.55;;
29728;SDS011;20055;51.498;11.960;2023-08-17T05:13:02;8.70;;;3.53;;
29728;SDS011;20055;51.498;11.960;2023-08-17T05:15:29;6.15;;;3.47;;
29728;SDS011;20055;51.498;11.960;2023-08-17T05:17:56;6.35;;;3.50;;
29728;SDS011;20055;51.498;11.960;2023-08-17T05:20:23;7.03;;;3.85;;
29728;SDS011;20055;51.498;11.960;2023-08-17T05:22:50;7.35;;;3.80;;
29728;SDS011;20055;51.498;11.960;2023-08-17T05:25:17;5.53;;;3.25;;
29728;SDS011;20055;51.498;11.960;2023-08-17T05:27:44;5.20;;;3.05;;
29728;SDS011;20055;51.498;11.960;2023-08-17T05:30:11;6.60;;;3.03;;
29728;SDS011;20055;51.498;11.960;2023-08-17T05:32:37;5.70;;;3.33;;
29728;SDS011;20055;51.498;11.960;2023-08-17T05:35:05;5.35;;;3.15;;
29728;SDS011;20055;51.498;11.960;2023-08-17T05:37:32;4.43;;;2.70;;
29728;SDS011;20055;51.498;11.960;2023-08-17T05:39:58;7.35;;;2.95;;
29728;SDS011;20055;51.498;11.960;2023-08-17T05:42:25;8.15;;;3.05;;
29728;SDS011;20055;51.498;11.960;2023-08-17T05:44:51;5.97;;;2.63;;
29728;SDS011;20055;51.498;11.960;2023-08-17T05:47:17;2.60;;;2.33;;
29728;SDS011;20055;51.498;11.960;2023-08-17T05:49:44;3.15;;;2.53;;
29728;SDS011;20055;51.498;11.960;2023-08-17T05:52:11;3.33;;;2.20;;
29728;SDS011;20055;51.498;11.960;2023-08-17T05:54:37;5.05;;;2.65;;
29728;SDS011;20055;51.498;11.960;2023-08-17T05:57:03;7.80;;;2.85;;
29728;SDS011;20055;51.498;11.960;2023-08-17T05:59:30;7.53;;;2.65;;
29728;SDS011;20055;51.498;11.960;2023-08-17T06:01:56;7.10;;;3.10;;
29728;SDS011;20055;51.498;11.960;2023-08-17T06:04:22;4.20;;;2.60;;
29728;SDS011;20055;51.498;11.960;2023-08-17T06:06:49;7.82;;;3.03;;
29728;SDS011;20055;51.498;11.960;2023-08-17T06:09:15;4.30;;;2.83;;
29728;SDS011;20055;51.498;11.960;2023-08-17T06:11:41;6.43;;;2.85;;
29728;SDS011;20055;51.498;11.960;2023-08-17T06:14:08;7.25;;;3.17;;
29728;SDS011;20055;51.498;11.960;2023-08-17T06:16:34;7.65;;;3.60;;
29728;SDS011;20055;51.498;11.960;2023-08-17T06:19:01;7.00;;;3.08;;
29728;SDS011;20055;51.498;11.960;2023-08-17T06:21:27;6.55;;;3.47;;
29728;SDS011;20055;51.498;11.960;2023-08-17T06:23:53;7.45;;;3.05;;
29728;SDS011;20055;51.498;11.960;2023-08-17T06:26:20;6.00;;;3.30;;
29728;SDS011;20055;51.498;11.960;2023-08-17T06:28:46;6.18;;;3.25;;
29728;SDS011;20055;51.498;11.960;2023-08-17T06:31:14;7.55;;;3.45;;
29728;SDS011;20055;51.498;11.960;2023-08-17T06:33:41;5.85;;;3.15;;
29728;SDS011;20055;51.498;11.960;2023-08-17T06:36:07;6.35;;;3.38;;
29728;SDS011;20055;51.498;11.960;2023-08-17T06:38:33;8.70;;;3.67;;
29728;SDS011;20055;51.498;11.960;2023-08-17T06:40:59;7.45;;;3.17;;
29728;SDS011;20055;51.498;11.960;2023-08-17T06:43:25;7.03;;;3.20;;
29728;SDS011;20055;51.498;11.960;2023-08-17T06:45:52;5.85;;;3.25;;
29728;SDS011;20055;51.498;11.960;2023-08-17T06:48:18;4.75;;;2.65;;
29728;SDS011;20055;51.498;11.960;2023-08-17T06:50:44;4.72;;;2.60;;
29728;SDS011;20055;51.498;11.960;2023-08-17T06:53:10;7.20;;;2.50;;
29728;SDS011;20055;51.498;11.960;2023-08-17T06:55:36;5.47;;;2.80;;
29728;SDS011;20055;51.498;11.960;2023-08-17T06:58:03;3.65;;;2.58;;
29728;SDS011;20055;51.498;11.960;2023-08-17T07:00:29;5.25;;;2.67;;
29728;SDS011;20055;51.498;11.960;2023-08-17T07:02:56;4.90;;;2.50;;
29728;SDS011;20055;51.498;11.960;2023-08-17T07:05:22;6.10;;;2.10;;
29728;SDS011;20055;51.498;11.960;2023-08-17T07:07:48;9.38;;;2.15;;
29728;SDS011;20055;51.498;11.960;2023-08-17T07:10:14;5.80;;;2.58;;
29728;SDS011;20055;51.498;11.960;2023-08-17T07:12:41;6.22;;;3.30;;
29728;SDS011;20055;51.498;11.960;2023-08-17T07:15:07;7.63;;;2.72;;
29728;SDS011;20055;51.498;11.960;2023-08-17T07:17:34;4.65;;;3.30;;
29728;SDS011;20055;51.498;11.960;2023-08-17T07:20:02;3.45;;;2.67;;
29728;SDS011;20055;51.498;11.960;2023-08-17T07:22:30;3.50;;;2.75;;
29728;SDS011;20055;51.498;11.960;2023-08-17T07:24:56;11.07;;;3.50;;
29728;SDS011;20055;51.498;11.960;2023-08-17T07:27:22;7.68;;;3.63;;
29728;SDS011;20055;51.498;11.960;2023-08-17T07:29:49;8.18;;;3.58;;
29728;SDS011;20055;51.498;11.960;2023-08-17T07:32:15;7.18;;;3.65;;
29728;SDS011;20055;51.498;11.960;2023-08-17T07:34:41;4.97;;;4.13;;
29728;SDS011;20055;51.498;11.960;2023-08-17T07:37:08;5.40;;;4.25;;
29728;SDS011;20055;51.498;11.960;2023-08-17T07:39:34;5.22;;;4.03;;
29728;SDS011;20055;51.498;11.960;2023-08-17T07:42:00;8.27;;;5.18;;
29728;SDS011;20055;51.498;11.960;2023-08-17T07:44:26;7.30;;;4.78;;
29728;SDS011;20055;51.498;11.960;2023-08-17T07:46:54;8.88;;;4.82;;
29728;SDS011;20055;51.498;11.960;2023-08-17T07:49:20;9.65;;;4.78;;
29728;SDS011;20055;51.498;11.960;2023-08-17T07:51:48;8.85;;;4.57;;
29728;SDS011;20055;51.498;11.960;2023-08-17T07:54:15;7.75;;;4.88;;
29728;SDS011;20055;51.498;11.960;2023-08-17T07:56:41;10.18;;;6.00;;
29728;SDS011;20055;51.498;11.960;2023-08-17T07:59:07;6.68;;;4.68;;
29728;SDS011;20055;51.498;11.960;2023-08-17T08:01:33;9.23;;;4.85;;
29728;SDS011;20055;51.498;11.960;2023-08-17T08:04:00;8.88;;;5.20;;
29728;SDS011;20055;51.498;11.960;2023-08-17T08:06:26;10.25;;;5.28;;
29728;SDS011;20055;51.498;11.960;2023-08-17T08:08:53;11.50;;;5.35;;
29728;SDS011;20055;51.498;11.960;2023-08-17T08:11:21;8.50;;;5.65;;
29728;SDS011;20055;51.498;11.960;2023-08-17T08:13:47;12.00;;;4.70;;
29728;SDS011;20055;51.498;11.960;2023-08-17T08:16:14;9.90;;;5.20;;
29728;SDS011;20055;51.498;11.960;2023-08-17T08:18:40;8.70;;;4.78;;
29728;SDS011;20055;51.498;11.960;2023-08-17T08:21:06;8.93;;;5.57;;
29728;SDS011;20055;51.498;11.960;2023-08-17T08:23:33;7.93;;;4.80;;
29728;SDS011;20055;51.498;11.960;2023-08-17T08:25:59;8.20;;;5.15;;
29728;SDS011;20055;51.498;11.960;2023-08-17T08:28:25;7.20;;;4.78;;
29728;SDS011;20055;51.498;11.960;2023-08-17T08:30:51;8.57;;;5.07;;
29728;SDS011;20055;51.498;11.960;2023-08-17T08:33:18;7.00;;;4.88;;
29728;SDS011;20055;51.498;11.960;2023-08-17T08:35:45;7.47;;;5.50;;
29728;SDS011;20055;51.498;11.960;2023-08-17T08:38:12;10.18;;;4.90;;
29728;SDS011;20055;51.498;11.960;2023-08-17T08:40:39;7.88;;;5.20;;
29728;SDS011;20055;51.498;11.960;2023-08-17T08:43:07;17.67;;;5.90;;
29728;SDS011;20055;51.498;11.960;2023-08-17T08:45:35;7.40;;;4.68;;
29728;SDS011;20055;51.498;11.960;2023-08-17T08:48:02;12.35;;;5.03;;
29728;SDS011;20055;51.498;11.960;2023-08-17T08:50:31;10.65;;;5.55;;
29728;SDS011;20055;51.498;11.960;2023-08-17T08:52:59;7.10;;;4.88;;
29728;SDS011;20055;51.498;11.960;2023-08-17T08:55:27;14.95;;;6.07;;
29728;SDS011;20055;51.498;11.960;2023-08-17T08:57:56;8.63;;;6.00;;
29728;SDS011;20055;51.498;11.960;2023-08-17T09:00:24;7.22;;;5.07;;
29728;SDS011;20055;51.498;11.960;2023-08-17T09:02:51;10.88;;;5.10;;
29728;SDS011;20055;51.498;11.960;2023-08-17T09:05:18;10.07;;;5.60;;
29728;SDS011;20055;51.498;11.960;2023-08-17T09:07:44;9.00;;;5.88;;
29728;SDS011;20055;51.498;11.960;2023-08-17T09:10:13;11.18;;;6.40;;
29728;SDS011;20055;51.498;11.960;2023-08-17T09:12:42;20.10;;;7.15;;
29728;SDS011;20055;51.498;11.960;2023-08-17T09:15:11;10.25;;;6.45;;
29728;SDS011;20055;51.498;11.960;2023-08-17T09:17:38;9.77;;;6.78;;
29728;SDS011;20055;51.498;11.960;2023-08-17T09:20:04;13.50;;;7.28;;
29728;SDS011;20055;51.498;11.960;2023-08-17T09:22:37;15.60;;;6.90;;
29728;SDS011;20055;51.498;11.960;2023-08-17T09:25:05;9.82;;;6.70;;
29728;SDS011;20055;51.498;11.960;2023-08-17T09:27:32;13.23;;;6.25;;
29728;SDS011;20055;51.498;11.960;2023-08-17T09:30:05;10.32;;;6.30;;
29728;SDS011;20055;51.498;11.960;2023-08-17T09:32:33;11.93;;;6.03;;
29728;SDS011;20055;51.498;11.960;2023-08-17T09:35:02;14.90;;;6.72;;
29728;SDS011;20055;51.498;11.960;2023-08-17T09:37:32;11.65;;;5.35;;
29728;SDS011;20055;51.498;11.960;2023-08-17T09:39:59;15.23;;;6.22;;
29728;SDS011;20055;51.498;11.960;2023-08-17T09:42:26;10.45;;;7.22;;
29728;SDS011;20055;51.498;11.960;2023-08-17T09:44:53;16.30;;;7.25;;
29728;SDS011;20055;51.498;11.960;2023-08-17T09:47:21;17.75;;;7.30;;
29728;SDS011;20055;51.498;11.960;2023-08-17T09:49:49;10.93;;;7.30;;
29728;SDS011;20055;51.498;11.960;2023-08-17T09:52:18;24.40;;;7.13;;
29728;SDS011;20055;51.498;11.960;2023-08-17T09:54:45;16.33;;;7.53;;
29728;SDS011;20055;51.498;11.960;2023-08-17T09:57:13;12.65;;;7.20;;
29728;SDS011;20055;51.498;11.960;2023-08-17T09:59:40;11.38;;;6.22;;
29728;SDS011;20055;51.498;11.960;2023-08-17T10:02:19;14.32;;;7.72;;
29728;SDS011;20055;51.498;11.960;2023-08-17T10:04:49;13.23;;;7.40;;
29728;SDS011;20055;51.498;11.960;2023-08-17T10:07:18;12.10;;;6.80;;
29728;SDS011;20055;51.498;11.960;2023-08-17T10:09:48;20.10;;;9.95;;
29728;SDS011;20055;51.498;11.960;2023-08-17T10:12:20;16.70;;;8.75;;
29728;SDS011;20055;51.498;11.960;2023-08-17T10:14:55;13.27;;;9.25;;
29728;SDS011;20055;51.498;11.960;2023-08-17T10:20:51;9.32;;;6.18;;
29728;SDS011;20055;51.498;11.960;2023-08-17T10:23:30;10.30;;;6.85;;
29728;SDS011;20055;51.498;11.960;2023-08-17T10:25:58;15.25;;;7.85;;
29728;SDS011;20055;51.498;11.960;2023-08-17T10:28:27;12.13;;;8.00;;
29728;SDS011;20055;51.498;11.960;2023-08-17T10:30:54;9.13;;;6.70;;
29728;SDS011;20055;51.498;11.960;2023-08-17T10:33:20;9.00;;;6.60;;
29728;SDS011;20055;51.498;11.960;2023-08-17T10:35:47;8.77;;;6.72;;
29728;SDS011;20055;51.498;11.960;2023-08-17T10:38:14;14.80;;;6.97;;
29728;SDS011;20055;51.498;11.960;2023-08-17T10:40:43;12.77;;;7.88;;
29728;SDS011;20055;51.498;11.960;2023-08-17T10:43:09;11.38;;;5.82;;
29728;SDS011;20055;51.498;11.960;2023-08-17T10:45:37;14.85;;;7.85;;
29728;SDS011;20055;51.498;11.960;2023-08-17T10:50:37;9.48;;;7.20;;
29728;SDS011;20055;51.498;11.960;2023-08-17T10:53:08;12.57;;;7.72;;
29728;SDS011;20055;51.498;11.960;2023-08-17T10:55:37;14.68;;;7.60;;
29728;SDS011;20055;51.498;11.960;2023-08-17T10:58:06;12.55;;;6.88;;
29728;SDS011;20055;51.498;11.960;2023-08-17T11:00:37;9.88;;;6.95;;
29728;SDS011;20055;51.498;11.960;2023-08-17T11:03:05;14.65;;;7.38;;
29728;SDS011;20055;51.498;11.960;2023-08-17T11:05:36;11.23;;;6.95;;
29728;SDS011;20055;51.498;11.960;2023-08-17T11:08:06;10.48;;;7.00;;
29728;SDS011;20055;51.498;11.960;2023-08-17T11:10:35;10.43;;;7.13;;
29728;SDS011;20055;51.498;11.960;2023-08-17T11:13:01;11.50;;;7.38;;
29728;SDS011;20055;51.498;11.960;2023-08-17T11:15:34;10.43;;;7.25;;
29728;SDS011;20055;51.498;11.960;2023-08-17T11:18:08;10.55;;;7.15;;
29728;SDS011;20055;51.498;11.960;2023-08-17T11:20:36;11.52;;;6.47;;
29728;SDS011;20055;51.498;11.960;2023-08-17T11:23:05;12.13;;;7.43;;
29728;SDS011;20055;51.498;11.960;2023-08-17T11:25:32;11.13;;;6.70;;
29728;SDS011;20055;51.498;11.960;2023-08-17T11:28:00;9.27;;;7.10;;
29728;SDS011;20055;51.498;11.960;2023-08-17T11:30:27;10.77;;;6.78;;
29728;SDS011;20055;51.498;11.960;2023-08-17T11:32:54;13.27;;;7.60;;
29728;SDS011;20055;51.498;11.960;2023-08-17T11:35:22;11.48;;;7.47;;
29728;SDS011;20055;51.498;11.960;2023-08-17T11:37:48;14.45;;;8.48;;
29728;SDS011;20055;51.498;11.960;2023-08-17T11:40:15;8.57;;;6.25;;
29728;SDS011;20055;51.498;11.960;2023-08-17T11:42:42;12.63;;;6.40;;
29728;SDS011;20055;51.498;11.960;2023-08-17T11:45:09;17.27;;;7.68;;
29728;SDS011;20055;51.498;11.960;2023-08-17T11:47:35;14.07;;;8.77;;
29728;SDS011;20055;51.498;11.960;2023-08-17T11:50:06;13.55;;;8.05;;
29728;SDS011;20055;51.498;11.960;2023-08-17T11:52:35;11.60;;;7.97;;
29728;SDS011;20055;51.498;11.960;2023-08-17T11:55:03;16.08;;;8.70;;
29728;SDS011;20055;51.498;11.960;2023-08-17T11:57:34;13.70;;;7.07;;
29728;SDS011;20055;51.498;11.960;2023-08-17T12:00:01;9.77;;;6.97;;
29728;SDS011;20055;51.498;11.960;2023-08-17T12:04:57;8.88;;;7.13;;
29728;SDS011;20055;51.498;11.960;2023-08-17T12:07:24;10.88;;;7.72;;
29728;SDS011;20055;51.498;11.960;2023-08-17T12:09:50;11.07;;;7.00;;
29728;SDS011;20055;51.498;11.960;2023-08-17T12:12:18;12.05;;;7.35;;
29728;SDS011;20055;51.498;11.960;2023-08-17T12:14:47;8.25;;;6.45;;
29728;SDS011;20055;51.498;11.960;2023-08-17T12:17:14;9.30;;;5.07;;
29728;SDS011;20055;51.498;11.960;2023-08-17T12:22:13;9.70;;;6.05;;
29728;SDS011;20055;51.498;11.960;2023-08-17T12:24:40;11.60;;;6.45;;
29728;SDS011;20055;51.498;11.960;2023-08-17T12:27:06;9.45;;;5.45;;
29728;SDS011;20055;51.498;11.960;2023-08-17T12:29:32;12.73;;;6.20;;
29728;SDS011;20055;51.498;11.960;2023-08-17T12:32:00;10.10;;;5.82;;
29728;SDS011;20055;51.498;11.960;2023-08-17T12:34:27;9.65;;;5.47;;
29728;SDS011;20055;51.498;11.960;2023-08-17T12:36:54;6.65;;;5.10;;
29728;SDS011;20055;51.498;11.960;2023-08-17T12:39:20;8.02;;;5.38;;
29728;SDS011;20055;51.498;11.960;2023-08-17T12:41:46;9.50;;;5.05;;
29728;SDS011;20055;51.498;11.960;2023-08-17T12:44:13;10.57;;;6.18;;
29728;SDS011;20055;51.498;11.960;2023-08-17T12:46:39;11.43;;;6.53;;
29728;SDS011;20055;51.498;11.960;2023-08-17T12:49:06;12.55;;;5.72;;
29728;SDS011;20055;51.498;11.960;2023-08-17T12:51:33;7.53;;;5.55;;
29728;SDS011;20055;51.498;11.960;2023-08-17T12:53:59;10.77;;;5.78;;
29728;SDS011;20055;51.498;11.960;2023-08-17T12:56:25;9.52;;;5.60;;
29728;SDS011;20055;51.498;11.960;2023-08-17T12:58:52;9.02;;;5.65;;
29728;SDS011;20055;51.498;11.960;2023-08-17T13:01:18;18.27;;;6.97;;
29728;SDS011;20055;51.498;11.960;2023-08-17T13:03:44;10.07;;;6.57;;
29728;SDS011;20055;51.498;11.960;2023-08-17T13:06:10;9.30;;;5.82;;
29728;SDS011;20055;51.498;11.960;2023-08-17T13:08:37;12.60;;;6.65;;
29728;SDS011;20055;51.498;11.960;2023-08-17T13:11:03;14.20;;;6.07;;
29728;SDS011;20055;51.498;11.960;2023-08-17T13:13:29;9.32;;;6.38;;
29728;SDS011;20055;51.498;11.960;2023-08-17T13:15:55;11.10;;;5.82;;
29728;SDS011;20055;51.498;11.960;2023-08-17T13:18:21;11.20;;;6.30;;
29728;SDS011;20055;51.498;11.960;2023-08-17T13:20:48;8.43;;;5.85;;
29728;SDS011;20055;51.498;11.960;2023-08-17T13:23:14;14.65;;;6.53;;
29728;SDS011;20055;51.498;11.960;2023-08-17T13:25:40;8.23;;;6.30;;
29728;SDS011;20055;51.498;11.960;2023-08-17T13:28:07;15.07;;;5.90;;
29728;SDS011;20055;51.498;11.960;2023-08-17T13:30:33;9.70;;;5.95;;
29728;SDS011;20055;51.498;11.960;2023-08-17T13:32:59;8.18;;;6.10;;
29728;SDS011;20055;51.498;11.960;2023-08-17T13:35:25;7.32;;;5.25;;
29728;SDS011;20055;51.498;11.960;2023-08-17T13:37:52;10.65;;;5.63;;
29728;SDS011;20055;51.498;11.960;2023-08-17T13:40:19;11.32;;;6.82;;
29728;SDS011;20055;51.498;11.960;2023-08-17T13:42:46;12.82;;;6.15;;
29728;SDS011;20055;51.498;11.960;2023-08-17T13:45:12;9.10;;;6.00;;
29728;SDS011;20055;51.498;11.960;2023-08-17T13:47:38;10.55;;;6.28;;
29728;SDS011;20055;51.498;11.960;2023-08-17T13:50:05;9.07;;;5.35;;
29728;SDS011;20055;51.498;11.960;2023-08-17T13:52:31;7.90;;;5.78;;
29728;SDS011;20055;51.498;11.960;2023-08-17T13:54:58;7.47;;;5.45;;
29728;SDS011;20055;51.498;11.960;2023-08-17T13:57:24;7.47;;;5.88;;
29728;SDS011;20055;51.498;11.960;2023-08-17T13:59:51;10.27;;;5.75;;
29728;SDS011;20055;51.498;11.960;2023-08-17T14:02:18;8.57;;;6.03;;
29728;SDS011;20055;51.498;11.960;2023-08-17T14:04:44;10.63;;;6.80;;
29728;SDS011;20055;51.498;11.960;2023-08-17T14:07:10;8.30;;;5.93;;
29728;SDS011;20055;51.498;11.960;2023-08-17T14:09:37;11.75;;;7.25;;
29728;SDS011;20055;51.498;11.960;2023-08-17T14:12:03;11.73;;;6.45;;
29728;SDS011;20055;51.498;11.960;2023-08-17T14:14:30;9.05;;;6.72;;
29728;SDS011;20055;51.498;11.960;2023-08-17T14:16:57;10.30;;;7.25;;
29728;SDS011;20055;51.498;11.960;2023-08-17T14:19:23;12.35;;;7.43;;
29728;SDS011;20055;51.498;11.960;2023-08-17T14:21:50;10.48;;;7.72;;
29728;SDS011;20055;51.498;11.960;2023-08-17T14:24:17;11.70;;;7.25;;
29728;SDS011;20055;51.498;11.960;2023-08-17T14:26:43;12.63;;;7.60;;
29728;SDS011;20055;51.498;11.960;2023-08-17T14:29:09;18.35;;;7.15;;
29728;SDS011;20055;51.498;11.960;2023-08-17T14:31:35;8.05;;;6.72;;
29728;SDS011;20055;51.498;11.960;2023-08-17T14:34:02;9.25;;;7.20;;
29728;SDS011;20055;51.498;11.960;2023-08-17T14:36:29;12.60;;;6.78;;
29728;SDS011;20055;51.498;11.960;2023-08-17T14:38:55;12.93;;;6.35;;
29728;SDS011;20055;51.498;11.960;2023-08-17T14:41:21;8.10;;;6.40;;
29728;SDS011;20055;51.498;11.960;2023-08-17T14:43:47;8.68;;;6.97;;